Time;durP1;ratioP1;P1;durP2;ratioP2;P2;SDS_P1;SDS_P2;PMS_P1;PMS_P2;Temp;Humidity;BMP_temperature;BMP_pressure;BME280_temperature;BME280_humidity;BME280_pressure;Samples;Min_cycle;Max_cycle;Signal;HPM_P1;HPM_P2
2022/11/01 00:00:07;;;;;;;;;;;18.20;69.80;;;;;;5072369;28;19926;-63
2022/11/01 00:02:33;;;;;;;;;;;18.20;69.80;;;;;;5072496;28;20299;-63
2022/11/01 00:04:58;;;;;;;;;;;18.20;69.80;;;;;;5072396;28;19924;-63
2022/11/01 00:07:24;;;;;;;;;;;18.10;69.70;;;;;;5071035;28;19920;-63
2022/11/01 00:09:49;;;;;;;;;;;18.20;69.80;;;;;;5071283;28;19975;-63
2022/11/01 00:12:15;;;;;;;;;;;18.20;69.80;;;;;;5070816;28;19924;-63
2022/11/01 00:14:40;;;;;;;;;;;18.20;69.80;;;;;;5072184;28;20329;-63
2022/11/01 00:17:06;;;;;;;;;;;18.10;69.70;;;;;;5071316;28;19920;-63
2022/11/01 00:19:31;;;;;;;;;;;18.00;69.60;;;;;;5072261;28;19928;-63
2022/11/01 00:21:57;;;;;;;;;;;18.10;69.60;;;;;;5070927;28;19920;-63
2022/11/01 00:24:23;;;;;;;;;;;18.10;69.60;;;;;;5071174;28;19935;-63
2022/11/01 00:26:49;;;;;;;;;;;18.20;69.70;;;;;;5072512;28;19939;-63
2022/11/01 00:29:15;;;;;;;;;;;18.10;69.60;;;;;;5072156;28;20012;-63
2022/11/01 00:31:40;;;;;;;;;;;18.10;69.60;;;;;;5072166;28;20376;-63
2022/11/01 00:34:06;;;;;;;;;;;18.00;69.60;;;;;;5073588;28;19960;-63
2022/11/01 00:36:31;;;;;;;;;;;18.10;69.60;;;;;;5076447;28;19924;-63
2022/11/01 00:38:57;;;;;;;;;;;18.10;69.60;;;;;;5076102;28;20001;-63
2022/11/01 00:41:23;;;;;;;;;;;18.10;69.60;;;;;;5075954;28;19920;-63
2022/11/01 00:43:48;;;;;;;;;;;18.00;69.50;;;;;;5076474;28;19946;-63
2022/11/01 00:46:14;;;;;;;;;;;18.10;69.50;;;;;;5074848;28;19920;-63
2022/11/01 00:48:39;;;;;;;;;;;18.10;69.50;;;;;;5074951;28;19927;-63
2022/11/01 00:51:05;;;;;;;;;;;18.10;69.50;;;;;;5075886;28;20291;-63
2022/11/01 00:53:30;;;;;;;;;;;18.10;69.50;;;;;;5074535;28;20510;-63
2022/11/01 00:55:58;;;;;;;;;;;18.10;69.50;;;;;;5074340;28;19927;-63
2022/11/01 00:58:24;;;;;;;;;;;18.10;69.50;;;;;;5075587;28;19921;-63
2022/11/01 01:00:49;;;;;;;;;;;18.10;69.50;;;;;;5074611;28;20287;-63
2022/11/01 01:03:15;;;;;;;;;;;18.20;69.60;;;;;;5075554;28;19921;-63
2022/11/01 01:05:40;;;;;;;;;;;18.10;69.50;;;;;;5075576;28;19928;-63
2022/11/01 01:08:06;;;;;;;;;;;18.10;69.50;;;;;;5074396;28;20287;-63
2022/11/01 01:10:31;;;;;;;;;;;18.10;69.50;;;;;;5073295;28;20403;-63
2022/11/01 01:12:57;;;;;;;;;;;18.10;69.50;;;;;;5073853;28;19939;-63
2022/11/01 01:15:22;;;;;;;;;;;18.10;69.50;;;;;;5074253;28;20376;-63
2022/11/01 01:17:48;;;;;;;;;;;18.10;69.50;;;;;;5074101;28;20340;-66
2022/11/01 01:20:14;;;;;;;;;;;18.10;69.40;;;;;;5073936;28;19921;-63
2022/11/01 01:22:41;;;;;;;;;;;18.10;69.40;;;;;;5074119;28;19927;-66
2022/11/01 01:25:07;;;;;;;;;;;18.10;69.40;;;;;;5075142;28;19920;-63
2022/11/01 01:27:32;;;;;;;;;;;18.10;69.40;;;;;;5074939;28;19920;-63
2022/11/01 01:29:58;;;;;;;;;;;18.10;69.50;;;;;;5073985;28;19925;-63
2022/11/01 01:32:23;;;;;;;;;;;18.10;69.50;;;;;;5073794;28;19924;-63
2022/11/01 01:34:49;;;;;;;;;;;18.00;69.40;;;;;;5074016;28;20390;-63
2022/11/01 01:37:15;;;;;;;;;;;18.10;69.80;;;;;;5075027;28;20391;-63
2022/11/01 01:39:40;;;;;;;;;;;18.10;69.40;;;;;;5073923;28;19928;-63
2022/11/01 01:42:15;;;;;;;;;;;18.10;69.40;;;;;;5074745;28;19920;-63
2022/11/01 01:47:30;;;;;;;;;;;18.00;69.30;;;;;;5110250;27;19913;-63
2022/11/01 01:50:01;;;;;;;;;;;18.10;69.40;;;;;;5109243;28;20014;-63
2022/11/01 01:52:30;;;;;;;;;;;18.10;69.40;;;;;;5110145;28;20010;-63
2022/11/01 01:54:56;;;;;;;;;;;18.00;69.40;;;;;;5109081;28;19989;-63
2022/11/01 01:57:22;;;;;;;;;;;18.00;69.30;;;;;;5108807;28;19946;-63
2022/11/01 01:59:48;;;;;;;;;;;18.00;70.00;;;;;;5108996;28;19927;-63
2022/11/01 02:02:14;;;;;;;;;;;18.00;69.30;;;;;;5108675;28;19924;-63
2022/11/01 02:04:42;;;;;;;;;;;18.00;69.30;;;;;;5108606;28;19973;-63
2022/11/01 02:07:08;;;;;;;;;;;18.00;69.30;;;;;;5109791;28;19975;-63
2022/11/01 02:09:34;;;;;;;;;;;18.00;69.30;;;;;;5108522;28;19966;-63
2022/11/01 02:11:59;;;;;;;;;;;18.00;69.30;;;;;;5107773;28;19920;-63
2022/11/01 02:14:25;;;;;;;;;;;18.00;69.30;;;;;;5108590;28;19927;-63
2022/11/01 02:19:51;;;;;;;;;;;18.00;69.30;;;;;;5090227;28;19919;-63
2022/11/01 02:22:37;;;;;;;;;;;18.00;69.30;;;;;;5088371;28;19943;-63
2022/11/01 02:25:18;;;;;;;;;;;18.00;69.30;;;;;;5088309;28;20003;-63
2022/11/01 02:28:03;;;;;;;;;;;18.00;69.30;;;;;;5088806;28;19924;-63
2022/11/01 02:30:38;;;;;;;;;;;18.00;69.30;;;;;;5088238;28;19926;-63
2022/11/01 02:33:12;;;;;;;;;;;18.00;69.30;;;;;;5089667;28;20398;-63
2022/11/01 02:35:46;;;;;;;;;;;18.00;69.30;;;;;;5088308;28;20384;-63
2022/11/01 02:38:15;;;;;;;;;;;18.00;69.30;;;;;;5089531;28;19924;-63
2022/11/01 02:43:24;;;;;;;;;;;18.00;69.30;;;;;;5089802;28;19912;-63
2022/11/01 02:45:49;;;;;;;;;;;18.00;69.30;;;;;;5089833;28;19924;-63
2022/11/01 02:48:18;;;;;;;;;;;18.00;69.30;;;;;;5088797;28;20277;-63
2022/11/01 02:50:46;;;;;;;;;;;18.00;69.30;;;;;;5088620;28;20162;-63
2022/11/01 02:53:12;;;;;;;;;;;18.00;69.30;;;;;;5088432;28;19920;-63
2022/11/01 02:55:37;;;;;;;;;;;18.00;69.40;;;;;;5088295;28;19921;-63
2022/11/01 02:58:05;;;;;;;;;;;18.00;69.30;;;;;;5088546;28;19924;-66
2022/11/01 03:00:32;;;;;;;;;;;18.00;69.30;;;;;;5089575;28;20384;-63
2022/11/01 03:08:26;;;;;;;;;;;18.00;69.40;;;;;;5127428;27;1865867;-63
2022/11/01 03:10:58;;;;;;;;;;;18.00;69.40;;;;;;5174349;27;19958;-63
2022/11/01 03:13:33;;;;;;;;;;;18.00;69.30;;;;;;5174503;27;20401;-67
2022/11/01 03:16:19;;;;;;;;;;;18.00;69.30;;;;;;5174212;27;20374;-63
2022/11/01 03:18:51;;;;;;;;;;;18.00;69.40;;;;;;5174020;27;19918;-62
2022/11/01 03:21:20;;;;;;;;;;;18.00;69.30;;;;;;5174389;27;19923;-63
2022/11/01 03:23:49;;;;;;;;;;;18.00;70.10;;;;;;5193023;27;19919;-62
2022/11/01 03:26:18;;;;;;;;;;;18.00;69.40;;;;;;5174023;27;19923;-63
2022/11/01 03:28:47;;;;;;;;;;;18.00;69.40;;;;;;5192937;27;20297;-63
2022/11/01 03:31:18;;;;;;;;;;;18.00;69.40;;;;;;5192758;27;19918;-63
2022/11/01 03:33:45;;;;;;;;;;;18.00;69.40;;;;;;5173934;27;20385;-63
2022/11/01 03:36:13;;;;;;;;;;;18.00;69.40;;;;;;5192936;27;19968;-67
2022/11/01 03:38:40;;;;;;;;;;;18.00;69.50;;;;;;5193062;27;20357;-62
2022/11/01 03:41:07;;;;;;;;;;;18.00;69.50;;;;;;5174196;27;19919;-63
2022/11/01 03:43:34;;;;;;;;;;;18.00;69.50;;;;;;5192632;27;20224;-63
2022/11/01 03:46:00;;;;;;;;;;;18.10;69.40;;;;;;5173630;27;19926;-62
2022/11/01 03:48:25;;;;;;;;;;;18.20;69.40;;;;;;5192383;27;19919;-63
2022/11/01 03:50:52;;;;;;;;;;;18.10;69.30;;;;;;5173574;27;20005;-66
2022/11/01 03:53:17;;;;;;;;;;;18.20;69.40;;;;;;5192549;27;20330;-67
2022/11/01 03:55:43;;;;;;;;;;;18.20;69.40;;;;;;5192541;27;19922;-63
2022/11/01 03:58:08;;;;;;;;;;;18.30;69.40;;;;;;5173768;27;20099;-63
2022/11/01 04:00:36;;;;;;;;;;;18.40;69.20;;;;;;5173735;27;20444;-62
2022/11/01 04:03:01;;;;;;;;;;;18.50;69.10;;;;;;5192085;27;20013;-62
2022/11/01 04:05:28;;;;;;;;;;;18.70;69.00;;;;;;5173730;27;19981;-63
2022/11/01 04:07:54;;;;;;;;;;;18.80;68.90;;;;;;5172929;27;19923;-62
2022/11/01 04:10:20;;;;;;;;;;;18.90;68.70;;;;;;5173173;27;19919;-63
2022/11/01 04:12:46;;;;;;;;;;;19.00;68.40;;;;;;5173182;27;19918;-63
2022/11/01 04:20:52;;;;;;;;;;;19.30;68.00;;;;;;5159035;27;19919;-62
2022/11/01 04:23:17;;;;;;;;;;;19.30;67.70;;;;;;5159400;27;20286;-63
2022/11/01 04:25:45;;;;;;;;;;;19.30;67.70;;;;;;5159490;27;19918;-63
2022/11/01 04:28:11;;;;;;;;;;;19.40;67.40;;;;;;5158946;27;19927;-63
2022/11/01 04:30:36;;;;;;;;;;;19.40;67.50;;;;;;5177680;27;19922;-62
2022/11/01 04:33:02;;;;;;;;;;;19.50;67.30;;;;;;5158880;27;20282;-63
2022/11/01 04:35:27;;;;;;;;;;;19.50;67.20;;;;;;5158913;27;19933;-63
2022/11/01 04:37:55;;;;;;;;;;;19.50;67.10;;;;;;5177648;27;19918;-63
2022/11/01 04:40:20;;;;;;;;;;;19.50;66.90;;;;;;5177465;27;19922;-63
2022/11/01 04:42:46;;;;;;;;;;;19.50;66.90;;;;;;5159077;27;20289;-63
2022/11/01 04:45:11;;;;;;;;;;;19.60;66.90;;;;;;5177305;27;19932;-63
2022/11/01 04:47:37;;;;;;;;;;;19.60;66.90;;;;;;5158719;27;19922;-63
2022/11/01 04:50:03;;;;;;;;;;;19.60;66.80;;;;;;5158597;27;19991;-63
2022/11/01 04:52:28;;;;;;;;;;;19.60;66.80;;;;;;5177354;27;20013;-63
2022/11/01 04:54:54;;;;;;;;;;;19.50;66.80;;;;;;5158474;27;19918;-63
2022/11/01 04:57:23;;;;;;;;;;;19.50;66.70;;;;;;5158500;27;19919;-63
2022/11/01 04:59:49;;;;;;;;;;;19.60;66.80;;;;;;5158366;27;19919;-63
2022/11/01 05:02:15;;;;;;;;;;;19.50;66.70;;;;;;5158400;27;19918;-63
2022/11/01 05:04:40;;;;;;;;;;;19.50;66.70;;;;;;5141331;27;19925;-63
2022/11/01 05:07:06;;;;;;;;;;;19.50;66.80;;;;;;5176620;27;19927;-63
2022/11/01 05:09:32;;;;;;;;;;;19.50;67.60;;;;;;5176946;27;19919;-63
2022/11/01 05:11:57;;;;;;;;;;;19.50;66.80;;;;;;5158495;27;19919;-63
2022/11/01 05:14:22;;;;;;;;;;;19.50;66.90;;;;;;5176820;27;19941;-63
2022/11/01 05:16:48;;;;;;;;;;;19.50;66.80;;;;;;5158103;27;19919;-63
2022/11/01 05:19:14;;;;;;;;;;;19.50;66.90;;;;;;5176689;27;19918;-63
2022/11/01 05:21:40;;;;;;;;;;;19.50;66.90;;;;;;5158291;27;19925;-63
2022/11/01 05:24:06;;;;;;;;;;;19.50;66.90;;;;;;5158001;27;19918;-62
2022/11/01 05:26:32;;;;;;;;;;;19.50;66.90;;;;;;5176555;27;19923;-62
2022/11/01 05:28:57;;;;;;;;;;;19.50;67.60;;;;;;5176568;27;19919;-63
2022/11/01 05:31:23;;;;;;;;;;;19.50;66.80;;;;;;5156960;27;20506;-63
2022/11/01 05:33:48;;;;;;;;;;;19.50;66.80;;;;;;5176474;27;20001;-67
2022/11/01 05:36:14;;;;;;;;;;;19.60;66.90;;;;;;5176392;27;19919;-63
2022/11/01 05:38:39;;;;;;;;;;;19.50;67.60;;;;;;5176363;27;19982;-63
2022/11/01 05:41:05;;;;;;;;;;;19.50;66.80;;;;;;5157519;27;20175;-63
2022/11/01 05:43:30;;;;;;;;;;;19.60;66.80;;;;;;5176254;27;19919;-63
2022/11/01 05:45:56;;;;;;;;;;;19.60;66.80;;;;;;5157464;27;19971;-63
2022/11/01 05:48:21;;;;;;;;;;;19.50;66.70;;;;;;5157399;27;19927;-63
2022/11/01 05:50:47;;;;;;;;;;;19.60;66.70;;;;;;5157688;27;19919;-63
2022/11/01 05:53:13;;;;;;;;;;;19.60;66.60;;;;;;5157518;27;19926;-63
2022/11/01 05:55:38;;;;;;;;;;;19.60;66.60;;;;;;5157497;27;19942;-66
2022/11/01 05:58:04;;;;;;;;;;;19.60;66.60;;;;;;5157830;27;20247;-63
2022/11/01 06:00:30;;;;;;;;;;;19.60;66.60;;;;;;5157162;27;19918;-63
2022/11/01 06:02:56;;;;;;;;;;;19.70;66.60;;;;;;5157074;27;19967;-63
2022/11/01 06:05:22;;;;;;;;;;;19.70;66.60;;;;;;5157518;27;20017;-64
2022/11/01 06:07:48;;;;;;;;;;;19.70;66.60;;;;;;5156788;27;19922;-63
2022/11/01 06:10:13;;;;;;;;;;;19.70;66.50;;;;;;5175862;27;19923;-63
2022/11/01 06:12:39;;;;;;;;;;;19.70;66.50;;;;;;5157297;27;19919;-63
2022/11/01 06:15:04;;;;;;;;;;;19.70;66.60;;;;;;5175624;27;19971;-63
2022/11/01 06:17:30;;;;;;;;;;;19.70;66.40;;;;;;5175501;27;19919;-62
2022/11/01 06:19:56;;;;;;;;;;;19.70;66.40;;;;;;5156820;27;20397;-63
2022/11/01 06:22:21;;;;;;;;;;;19.70;66.30;;;;;;5157115;27;19922;-66
2022/11/01 06:24:47;;;;;;;;;;;19.70;66.20;;;;;;5157230;27;20425;-63
2022/11/01 06:27:12;;;;;;;;;;;19.80;66.20;;;;;;5156871;27;19970;-63
2022/11/01 06:29:38;;;;;;;;;;;19.80;66.10;;;;;;5175430;27;20273;-63
2022/11/01 06:32:04;;;;;;;;;;;19.80;66.00;;;;;;5175303;27;20267;-63
2022/11/01 06:34:29;;;;;;;;;;;19.80;66.00;;;;;;5139514;27;20395;-63
2022/11/01 06:36:55;;;;;;;;;;;19.80;66.00;;;;;;5139763;27;19919;-63
2022/11/01 06:39:20;;;;;;;;;;;19.80;65.90;;;;;;5137446;27;19919;-62
2022/11/01 06:41:46;;;;;;;;;;;19.90;65.60;;;;;;5147541;27;19923;-64
2022/11/01 06:44:11;;;;;;;;;;;19.90;65.10;;;;;;5138823;27;19964;-64
2022/11/01 06:46:37;;;;;;;;;;;19.90;64.10;;;;;;5121380;27;20055;-63
2022/11/01 06:49:02;;;;;;;;;;;19.90;63.80;;;;;;5125049;27;19918;-64
2022/11/01 06:51:28;;;;;;;;;;;19.90;62.50;;;;;;5160496;27;20413;-63
2022/11/01 06:53:53;;;;;;;;;;;19.90;61.60;;;;;;5157250;27;19918;-65
2022/11/01 06:56:19;;;;;;;;;;;19.90;60.90;;;;;;5156712;27;19918;-64
2022/11/01 06:58:48;;;;;;;;;;;20.10;60.90;;;;;;5141879;27;20439;-65
2022/11/01 07:01:14;;;;;;;;;;;20.00;59.60;;;;;;5155605;27;20242;-65
2022/11/01 07:03:39;;;;;;;;;;;20.00;59.40;;;;;;5130906;27;19919;-64
2022/11/01 07:06:05;;;;;;;;;;;20.00;59.50;;;;;;5149837;27;19919;-67
2022/11/01 07:08:30;;;;;;;;;;;20.00;58.90;;;;;;5129741;27;20271;-64
2022/11/01 07:10:56;;;;;;;;;;;20.00;58.80;;;;;;5150992;27;20382;-65
2022/11/01 07:13:22;;;;;;;;;;;20.00;58.70;;;;;;5138844;27;19926;-66
2022/11/01 07:15:47;;;;;;;;;;;20.00;59.50;;;;;;5152823;27;19923;-62
2022/11/01 07:18:13;;;;;;;;;;;20.00;60.10;;;;;;5146191;27;19967;-63
2022/11/01 07:20:40;;;;;;;;;;;20.00;59.80;;;;;;5155581;27;19922;-63
2022/11/01 07:23:09;;;;;;;;;;;20.10;59.30;;;;;;5152495;27;19926;-63
2022/11/01 07:25:35;;;;;;;;;;;20.10;59.20;;;;;;5129952;27;19954;-65
2022/11/01 07:28:00;;;;;;;;;;;20.10;59.00;;;;;;5132330;27;20017;-64
2022/11/01 07:30:26;;;;;;;;;;;20.10;59.00;;;;;;5132210;27;19979;-67
2022/11/01 07:32:56;;;;;;;;;;;20.20;59.30;;;;;;5127650;27;19937;-66
2022/11/01 07:35:23;;;;;;;;;;;20.20;59.30;;;;;;5150449;27;19929;-64
2022/11/01 07:37:48;;;;;;;;;;;20.20;59.10;;;;;;5140792;27;19925;-64
2022/11/01 07:40:14;;;;;;;;;;;20.20;59.60;;;;;;5136893;27;20373;-69
2022/11/01 07:42:41;;;;;;;;;;;20.20;59.70;;;;;;5138468;27;19919;-63
2022/11/01 07:45:07;;;;;;;;;;;20.20;59.80;;;;;;5152455;27;20555;-64
2022/11/01 07:47:32;;;;;;;;;;;20.20;59.90;;;;;;5149518;27;19927;-63
2022/11/01 07:49:58;;;;;;;;;;;20.20;60.10;;;;;;5135616;27;19926;-64
2022/11/01 07:52:23;;;;;;;;;;;20.20;60.10;;;;;;5139953;27;19933;-67
2022/11/01 07:54:49;;;;;;;;;;;20.20;60.00;;;;;;5157313;27;19923;-66
2022/11/01 07:57:14;;;;;;;;;;;20.20;60.20;;;;;;5139583;27;20494;-66
2022/11/01 07:59:40;;;;;;;;;;;20.20;60.40;;;;;;5150091;27;19931;-65
2022/11/01 08:02:05;;;;;;;;;;;20.30;60.20;;;;;;5132678;27;20443;-66
2022/11/01 08:04:31;;;;;;;;;;;20.30;60.40;;;;;;5132358;27;20003;-65
2022/11/01 08:06:56;;;;;;;;;;;20.30;59.80;;;;;;5156103;27;19926;-64
2022/11/01 08:09:22;;;;;;;;;;;20.30;60.30;;;;;;5153938;27;19927;-64
2022/11/01 08:11:47;;;;;;;;;;;20.30;60.30;;;;;;5152165;27;20297;-66
2022/11/01 08:14:13;;;;;;;;;;;20.40;60.00;;;;;;5153465;27;19923;-66
2022/11/01 08:16:38;;;;;;;;;;;20.30;59.70;;;;;;5151173;27;19930;-68
2022/11/01 08:19:04;;;;;;;;;;;20.30;59.50;;;;;;5137279;27;19937;-67
2022/11/01 08:21:29;;;;;;;;;;;20.30;59.30;;;;;;5155339;27;19922;-68
2022/11/01 08:23:55;;;;;;;;;;;20.30;59.10;;;;;;5151711;27;19927;-67
2022/11/01 08:26:20;;;;;;;;;;;20.30;59.00;;;;;;5156395;27;20522;-66
2022/11/01 08:28:46;;;;;;;;;;;20.30;59.20;;;;;;5155171;27;19950;-67
2022/11/01 08:31:11;;;;;;;;;;;20.30;58.90;;;;;;5137782;27;20405;-67
2022/11/01 08:33:37;;;;;;;;;;;20.30;59.00;;;;;;5154433;27;19923;-67
2022/11/01 08:36:02;;;;;;;;;;;20.30;59.10;;;;;;5139524;27;19935;-67
2022/11/01 08:38:28;;;;;;;;;;;20.30;59.10;;;;;;5154621;27;19919;-71
2022/11/01 08:40:54;;;;;;;;;;;20.30;59.40;;;;;;5155673;27;20378;-67
2022/11/01 08:43:19;;;;;;;;;;;20.30;59.60;;;;;;5140096;27;19918;-73
2022/11/01 08:45:45;;;;;;;;;;;20.20;59.50;;;;;;5157590;27;19970;-66
2022/11/01 08:48:11;;;;;;;;;;;20.30;59.80;;;;;;5140312;27;19943;-67
2022/11/01 08:50:37;;;;;;;;;;;20.20;59.80;;;;;;5159027;27;20044;-67
2022/11/01 08:53:04;;;;;;;;;;;20.30;59.80;;;;;;5158265;27;19930;-67
2022/11/01 08:55:29;;;;;;;;;;;20.20;59.80;;;;;;5155061;27;19923;-67
2022/11/01 08:57:57;;;;;;;;;;;20.30;60.00;;;;;;5143242;27;20335;-67
2022/11/01 09:00:22;;;;;;;;;;;20.20;59.80;;;;;;5152844;27;19949;-67
2022/11/01 09:02:48;;;;;;;;;;;20.20;59.90;;;;;;5141478;27;20377;-67
2022/11/01 09:05:14;;;;;;;;;;;20.20;59.90;;;;;;5136916;27;19930;-73
2022/11/01 09:07:39;;;;;;;;;;;20.20;59.80;;;;;;5142879;27;19942;-67
2022/11/01 09:10:05;;;;;;;;;;;20.20;59.80;;;;;;5140872;27;20004;-67
2022/11/01 09:12:31;;;;;;;;;;;20.20;59.80;;;;;;5155962;27;20437;-67
2022/11/01 09:14:57;;;;;;;;;;;20.20;59.80;;;;;;5146299;27;20017;-67
2022/11/01 09:17:22;;;;;;;;;;;20.20;59.70;;;;;;5134635;27;20029;-66
2022/11/01 09:19:48;;;;;;;;;;;20.20;59.80;;;;;;5140148;27;19966;-65
2022/11/01 09:22:13;;;;;;;;;;;20.20;59.70;;;;;;5158477;27;20038;-66
2022/11/01 09:24:39;;;;;;;;;;;20.20;60.00;;;;;;5139345;27;19923;-66
2022/11/01 09:27:06;;;;;;;;;;;20.20;60.10;;;;;;5136397;27;19979;-67
2022/11/01 09:29:31;;;;;;;;;;;20.30;60.30;;;;;;5142840;27;19958;-65
2022/11/01 09:31:57;;;;;;;;;;;20.20;60.30;;;;;;5155117;27;19974;-64
2022/11/01 09:34:22;;;;;;;;;;;20.20;60.30;;;;;;5139823;27;19923;-66
2022/11/01 09:36:48;;;;;;;;;;;20.20;60.40;;;;;;5136388;27;20422;-67
2022/11/01 09:39:16;;;;;;;;;;;20.20;60.10;;;;;;5153075;27;19923;-65
2022/11/01 09:41:46;;;;;;;;;;;20.20;60.10;;;;;;5154107;27;20609;-73
2022/11/01 09:44:15;;;;;;;;;;;20.20;59.40;;;;;;5141101;27;19929;-66
2022/11/01 09:46:44;;;;;;;;;;;20.20;59.40;;;;;;5139444;27;20629;-64
2022/11/01 09:49:11;;;;;;;;;;;20.20;59.30;;;;;;5126910;27;19927;-65
2022/11/01 09:51:37;;;;;;;;;;;20.20;59.50;;;;;;5149379;27;19930;-66
2022/11/01 09:54:03;;;;;;;;;;;20.20;59.80;;;;;;5154736;27;19923;-64
2022/11/01 09:56:50;;;;;;;;;;;20.20;59.90;;;;;;5141273;27;20021;-65
2022/11/01 09:59:35;;;;;;;;;;;20.20;60.10;;;;;;5139877;27;20702;-65
2022/11/01 10:04:46;;;;;;;;;;;20.20;60.30;;;;;;5091077;27;1957457;-64
2022/11/01 10:07:32;;;;;;;;;;;20.10;60.30;;;;;;5135462;27;19931;-65
2022/11/01 10:12:48;;;;;;;;;;;20.10;60.50;;;;;;5060788;28;20315;-71
2022/11/01 10:18:02;;;;;;;;;;;20.10;60.80;;;;;;5057964;28;19921;-65
2022/11/01 10:20:29;;;;;;;;;;;20.20;61.00;;;;;;5069626;28;20395;-65
2022/11/01 10:22:55;;;;;;;;;;;20.10;60.80;;;;;;5068651;28;19929;-64
2022/11/01 10:25:23;;;;;;;;;;;20.20;60.90;;;;;;5068360;28;19935;-64
2022/11/01 10:28:09;;;;;;;;;;;20.10;61.00;;;;;;5085593;28;19931;-65
2022/11/01 10:30:37;;;;;;;;;;;20.10;61.00;;;;;;5067473;28;19925;-65
2022/11/01 10:33:15;;;;;;;;;;;20.10;61.10;;;;;;5081661;28;20622;-64
2022/11/01 10:35:43;;;;;;;;;;;20.20;61.30;;;;;;5063837;28;20367;-64
2022/11/01 10:38:16;;;;;;;;;;;20.10;61.10;;;;;;5056433;28;19928;-64
2022/11/01 10:41:02;;;;;;;;;;;20.20;61.10;;;;;;5063813;28;20296;-66
2022/11/01 10:43:31;;;;;;;;;;;20.20;61.20;;;;;;5068542;28;19936;-66
2022/11/01 10:45:57;;;;;;;;;;;20.20;61.10;;;;;;5073942;28;20410;-66
2022/11/01 10:48:43;;;;;;;;;;;20.20;61.10;;;;;;5069099;28;19928;-66
2022/11/01 10:51:09;;;;;;;;;;;20.20;61.00;;;;;;5069271;28;20401;-67
2022/11/01 10:53:38;;;;;;;;;;;20.20;61.80;;;;;;5059762;28;19978;-66
2022/11/01 10:56:07;;;;;;;;;;;20.20;61.00;;;;;;5083090;28;19925;-67
2022/11/01 10:58:36;;;;;;;;;;;20.30;61.30;;;;;;5067927;28;19928;-65
2022/11/01 11:01:04;;;;;;;;;;;20.20;61.30;;;;;;5065403;28;19931;-64
2022/11/01 11:03:30;;;;;;;;;;;20.30;61.40;;;;;;5081836;28;20358;-65
2022/11/01 11:05:58;;;;;;;;;;;20.30;61.40;;;;;;5066104;28;20007;-64
2022/11/01 11:08:24;;;;;;;;;;;20.30;61.30;;;;;;5066395;28;20336;-65
2022/11/01 11:10:50;;;;;;;;;;;20.30;61.10;;;;;;5065876;28;19935;-66
2022/11/01 11:13:18;;;;;;;;;;;20.30;61.20;;;;;;5069564;28;19939;-66
2022/11/01 11:18:28;;;;;;;;;;;20.30;61.60;;;;;;5099959;27;1860141;-65
2022/11/01 11:20:55;;;;;;;;;;;20.30;61.80;;;;;;5142620;27;19925;-64
2022/11/01 11:23:21;;;;;;;;;;;20.30;61.80;;;;;;5136650;27;19952;-65
2022/11/01 11:25:49;;;;;;;;;;;20.30;62.00;;;;;;5157173;27;19919;-62
2022/11/01 11:28:19;;;;;;;;;;;20.30;62.20;;;;;;5141263;27;20008;-64
2022/11/01 11:30:45;;;;;;;;;;;20.30;62.30;;;;;;5139887;27;19923;-65
2022/11/01 11:33:14;;;;;;;;;;;20.30;62.10;;;;;;5136203;27;19923;-65
2022/11/01 11:35:44;;;;;;;;;;;20.30;60.90;;;;;;5159621;27;19927;-63
2022/11/01 11:38:13;;;;;;;;;;;20.30;60.70;;;;;;5140045;27;19931;-63
2022/11/01 11:48:55;;;;;;;;;;;20.40;61.60;;;;;;5110270;27;1866331;-67
2022/11/01 11:51:21;;;;;;;;;;;20.40;61.90;;;;;;5156888;27;19958;-64
2022/11/01 11:54:03;;;;;;;;;;;20.40;61.90;;;;;;5157039;27;19944;-67
2022/11/01 11:56:28;;;;;;;;;;;20.40;61.80;;;;;;5159925;27;19922;-65
2022/11/01 11:58:55;;;;;;;;;;;20.40;61.90;;;;;;5156341;27;19922;-66
2022/11/01 12:01:22;;;;;;;;;;;20.50;62.10;;;;;;5159250;27;19919;-66
2022/11/01 12:03:52;;;;;;;;;;;20.40;62.10;;;;;;5137951;27;19957;-68
2022/11/01 12:06:19;;;;;;;;;;;20.50;62.20;;;;;;5175403;27;19965;-66
2022/11/01 12:08:46;;;;;;;;;;;20.50;62.30;;;;;;5153341;27;19927;-65
2022/11/01 12:11:12;;;;;;;;;;;20.50;61.80;;;;;;5156558;27;19923;-64
2022/11/01 12:13:40;;;;;;;;;;;20.50;61.90;;;;;;5158056;27;19923;-65
2022/11/01 12:16:23;;;;;;;;;;;20.50;62.00;;;;;;5157385;27;19923;-64
2022/11/01 12:21:33;;;;;;;;;;;20.50;62.20;;;;;;5082405;27;19920;-64
2022/11/01 12:24:03;;;;;;;;;;;20.60;62.40;;;;;;5076588;28;19967;-64
2022/11/01 12:26:30;;;;;;;;;;;20.50;62.20;;;;;;5074721;28;19994;-64
2022/11/01 12:28:59;;;;;;;;;;;20.60;62.30;;;;;;5076135;28;19927;-65
2022/11/01 12:31:25;;;;;;;;;;;20.60;62.30;;;;;;5085771;28;20411;-64
2022/11/01 12:33:53;;;;;;;;;;;20.60;62.40;;;;;;5087532;28;20015;-66
2022/11/01 12:36:23;;;;;;;;;;;20.60;62.50;;;;;;5076425;28;20026;-65
2022/11/01 12:38:54;;;;;;;;;;;20.60;62.50;;;;;;5070523;28;19927;-65
2022/11/01 12:41:24;;;;;;;;;;;20.60;62.60;;;;;;5086698;28;19932;-66
2022/11/01 12:46:34;;;;;;;;;;;20.60;62.60;;;;;;5090163;27;1987396;-66
2022/11/01 12:49:04;;;;;;;;;;;20.60;62.60;;;;;;5140472;27;19947;-65
2022/11/01 12:51:34;;;;;;;;;;;20.60;62.80;;;;;;5136851;27;20278;-65
2022/11/01 12:54:11;;;;;;;;;;;20.60;62.70;;;;;;5141349;27;19971;-63
2022/11/01 12:56:37;;;;;;;;;;;20.60;62.80;;;;;;5156132;27;19927;-64
2022/11/01 12:59:04;;;;;;;;;;;20.70;62.90;;;;;;5141448;27;19919;-64
2022/11/01 13:01:41;;;;;;;;;;;20.70;61.40;;;;;;5141550;27;19972;-66
2022/11/01 13:06:55;;;;;;;;;;;20.70;61.40;;;;;;5084175;27;1870773;-66
2022/11/01 13:09:41;;;;;;;;;;;20.70;61.20;;;;;;5092602;27;20580;-69
2022/11/01 13:18:00;;;;;;;;;;;20.70;60.90;;;;;;5082873;27;19920;-65
2022/11/01 13:20:45;;;;;;;;;;;20.70;61.00;;;;;;5046959;28;20526;-64
2022/11/01 13:23:15;;;;;;;;;;;20.70;60.80;;;;;;5048065;28;19939;-64
2022/11/01 13:25:46;;;;;;;;;;;20.70;61.80;;;;;;5089466;28;20406;-65
2022/11/01 13:28:21;;;;;;;;;;;20.70;61.10;;;;;;5057664;28;20312;-65
2022/11/01 13:30:53;;;;;;;;;;;20.80;61.50;;;;;;5057240;28;19925;-64
2022/11/01 13:33:23;;;;;;;;;;;20.80;61.60;;;;;;5055118;28;20015;-67
2022/11/01 13:35:55;;;;;;;;;;;20.80;61.80;;;;;;5087995;28;19974;-67
2022/11/01 13:41:36;;;;;;;;;;;20.70;61.70;;;;;;5078281;27;19924;-67
2022/11/01 13:44:04;;;;;;;;;;;20.90;62.00;;;;;;5106102;27;20019;-61
2022/11/01 13:46:45;;;;;;;;;;;20.90;62.10;;;;;;5076851;28;19931;-64
2022/11/01 13:49:20;;;;;;;;;;;20.90;62.20;;;;;;5102950;27;19928;-63
2022/11/01 13:59:54;;;;;;;;;;;21.00;62.30;;;;;;5094507;27;1855095;-65
2022/11/01 14:05:09;;;;;;;;;;;21.00;62.50;;;;;;5087685;27;19954;-66
2022/11/01 14:07:36;;;;;;;;;;;21.00;62.70;;;;;;5088455;28;20012;-66
2022/11/01 14:10:10;;;;;;;;;;;21.00;62.80;;;;;;5087417;28;20521;-67
2022/11/01 14:12:38;;;;;;;;;;;21.00;62.30;;;;;;5087983;28;19930;-68
2022/11/01 14:18:08;;;;;;;;;;;20.90;61.10;;;;;;5089456;27;19916;-69
2022/11/01 14:28:59;;;;;;;;;;;20.90;59.10;;;;;;5080615;27;19950;-68
2022/11/01 14:31:30;;;;;;;;;;;20.90;58.50;;;;;;5062511;28;20016;-69
2022/11/01 14:33:59;;;;;;;;;;;20.90;58.10;;;;;;5079555;28;20015;-68
2022/11/01 14:36:26;;;;;;;;;;;20.90;58.50;;;;;;5115155;28;19924;-69
2022/11/01 14:38:55;;;;;;;;;;;20.90;58.50;;;;;;5078768;28;19947;-67
2022/11/01 14:41:22;;;;;;;;;;;20.80;57.80;;;;;;5111761;28;19943;-67
2022/11/01 14:43:50;;;;;;;;;;;20.90;57.70;;;;;;5113264;28;19966;-67
2022/11/01 14:46:18;;;;;;;;;;;20.90;57.20;;;;;;5081608;28;20437;-68
2022/11/01 14:49:03;;;;;;;;;;;20.80;57.30;;;;;;5084903;28;19936;-65
2022/11/01 14:51:47;;;;;;;;;;;20.80;57.50;;;;;;5089249;28;19927;-66
2022/11/01 14:56:56;;;;;;;;;;;20.90;58.40;;;;;;5083200;27;19942;-64
2022/11/01 14:59:23;;;;;;;;;;;20.90;58.50;;;;;;5095078;28;19920;-64
2022/11/01 15:01:50;;;;;;;;;;;20.80;58.80;;;;;;5057054;28;19978;-66
2022/11/01 15:04:19;;;;;;;;;;;20.90;58.30;;;;;;5082735;28;19930;-65
2022/11/01 15:06:45;;;;;;;;;;;20.80;58.50;;;;;;5099233;28;19924;-66
2022/11/01 15:09:16;;;;;;;;;;;21.00;58.80;;;;;;5097894;28;20015;-66
2022/11/01 15:11:42;;;;;;;;;;;20.90;58.90;;;;;;5067962;28;19931;-66
2022/11/01 15:14:07;;;;;;;;;;;20.90;59.10;;;;;;5063705;28;20587;-65
2022/11/01 15:16:34;;;;;;;;;;;20.90;59.00;;;;;;5083252;28;20055;-66
2022/11/01 15:19:03;;;;;;;;;;;20.90;59.20;;;;;;5063641;28;19983;-66
2022/11/01 15:21:31;;;;;;;;;;;20.80;59.20;;;;;;5063421;28;19926;-68
2022/11/01 15:23:56;;;;;;;;;;;20.80;59.30;;;;;;5082058;28;19951;-66
2022/11/01 15:26:24;;;;;;;;;;;20.80;59.30;;;;;;5064659;28;20419;-66
2022/11/01 15:28:57;;;;;;;;;;;20.80;59.50;;;;;;5083252;28;19920;-66
2022/11/01 15:31:23;;;;;;;;;;;20.80;59.40;;;;;;5079298;28;19944;-66
2022/11/01 15:33:54;;;;;;;;;;;20.80;59.50;;;;;;5098484;28;20337;-66
2022/11/01 15:36:22;;;;;;;;;;;20.80;59.70;;;;;;5083128;28;19925;-66
2022/11/01 15:38:49;;;;;;;;;;;20.80;59.60;;;;;;5099818;28;19927;-67